Observations for EDINBURGH AIRPORT, United Kingdom (EGPH)

EGPH 151950Z 22007KT 9999 SCT035CB 16/13 Q1005  
EGPH 151920Z 22006KT 9999 SCT040CB 16/14 Q1005  
EGPH 151850Z 25005KT 9999 VCSH FEW045TCU 16/14 Q1005
EGPH 151820Z 25008KT 9999 -RA FEW045TCU 17/14 Q1005 
EGPH 151750Z 25005KT 9999 -RA FEW045TCU 18/13 Q1005 
EGPH 151720Z 26007KT 9999 FEW045 18/13 Q1005
EGPH 151650Z 26009KT 9999 FEW038 19/13 Q1006
EGPH 151620Z 25012KT 9999 FEW033 19/13 Q1006
EGPH 151550Z 26010KT 230V300 9999 SCT032 19/13 Q1006
EGPH 151520Z 26014KT 9999 SCT033 21/13 Q1006
EGPH 151450Z 25016KT 9999 BKN032 21/14 Q1006
EGPH 151420Z 26012KT 9999 SCT033 21/14 Q1006
EGPH 151350Z 26015KT 230V300 9999 SCT035 21/13 Q1006
EGPH 151320Z 25020KT 9999 SCT035 21/13 Q1006
EGPH 151250Z 24018KT 9999 SCT035 21/14 Q1006
EGPH 151220Z 24017KT 9999 SCT032 20/13 Q1007
EGPH 151150Z 24015KT 9999 SCT020 20/14 Q1007
EGPH 151120Z 24014KT 9999 SCT011 19/16 Q1007
EGPH 151050Z 25009KT 9999 SCT011TCU BKN020 17/16 Q1007  
EGPH 151020Z 23011KT 9000 VCSH SCT013TCU BKN018 17/17 Q1007 RESHRA  
EGPH 150950Z 22017KT 9999 VCSH SCT019 21/16 Q1007   
EGPH 150920Z 23016KT 9999 FEW015 19/16 Q1007
EGPH 150850Z 22017KT 9999 FEW013 BKN026 19/16 Q1007 
EGPH 150820Z 22013KT 9999 BKN014 18/16 Q1007
EGPH 150750Z 22011KT 9999 BKN014 18/16 Q1008
EGPH 150720Z 23011KT 9999 BKN013 18/16 Q1008
EGPH 150650Z 23013KT 9999 OVC013 17/16 Q1008
EGPH 150620Z 22012KT 9999 OVC012 17/16 Q1008
EGPH 150550Z 23010KT 9999 OVC012 17/16 Q1008
EGPH 150520Z 22011KT 9999 BKN012 17/16 Q1008
EGPH 150450Z 23011KT 9000 -RA OVC013 17/16 Q1008
EGPH 150420Z 23008KT 9000 -RA BKN013 OVC026 17/16 Q1008 
EGPH 150350Z 23010KT 8000 -RA SCT012 BKN033 17/16 Q1008 
EGPH 150320Z 22011KT 8000 -RA BKN012 17/16 Q1008
EGPH 150250Z 22010KT 9999 -RA BKN013 17/16 Q1009
EGPH 150220Z 23011KT 9999 FEW016 17/16 Q1009
EGPH 150150Z 23013KT 9000 BKN017 17/16 Q1009
EGPH 150120Z 22010KT 9999 BKN018 17/17 Q1009
EGPH 150050Z VRB03KT 9000 -RA BKN019 15/15 Q1009
EGPH 150020Z 25004KT 8000 -RA BKN016 BKN030 15/15 Q1010 
EGPH 142350Z 26004KT 9000 BKN012 OVC023 16/15 Q1010 
EGPH 142320Z 26004KT 9999 BKN010 16/15 Q1010
EGPH 142250Z 25006KT 9999 SCT011 BKN027 16/15 Q1010 
EGPH 142220Z 26006KT 240V300 9999 BKN012 16/14 Q1011
EGPH 142150Z 27006KT 230V300 9999 BKN015 16/14 Q1011
EGPH 142120Z 25009KT 9999 BKN014 16/14 Q1010
EGPH 142050Z 25007KT 9999 BKN024 16/14 Q1011
EGPH 142020Z 25008KT 9999 SCT030 16/14 Q1011
EGPH 141950Z 26008KT 9999 BKN017 17/14 Q1010
EGPH 141920Z 26009KT 9999 BKN017 17/15 Q1010